Time;durP1;ratioP1;P1;durP2;ratioP2;P2;SDS_P1;SDS_P2;PMS_P1;PMS_P2;Temp;Humidity;BMP_temperature;BMP_pressure;BME280_temperature;BME280_humidity;BME280_pressure;Samples;Min_cycle;Max_cycle;Signal;HPM_P1;HPM_P2
2023/04/22 00:01:27;289068.00;0.96;499.13;31258.00;0.10;54.76;;;;;15.80;1.00;;;;;;2259622;61;1999;-89
2023/04/22 00:03:54;192111.00;0.64;332.34;0.00;0.00;0.62;;;;;15.90;1.00;;;;;;2259739;61;1446;-89
2023/04/22 00:06:21;154661.00;0.52;267.84;0.00;0.00;0.62;;;;;16.00;1.00;;;;;;2259828;61;1603;-88
2023/04/22 00:08:48;154137.00;0.51;266.94;0.00;0.00;0.62;;;;;15.80;1.00;;;;;;2259844;61;1096;-87
2023/04/22 00:11:15;109304.00;0.36;189.63;0.00;0.00;0.62;;;;;15.90;1.00;;;;;;2259831;61;1107;-88
2023/04/22 00:13:42;179898.00;0.60;311.31;0.00;0.00;0.62;;;;;16.10;1.00;;;;;;2259827;61;1391;-87
2023/04/22 00:16:09;253029.00;0.84;437.16;0.00;0.00;0.62;;;;;16.10;1.00;;;;;;2259732;61;1190;-87
2023/04/22 00:18:37;279844.00;0.93;483.27;0.00;0.00;0.62;;;;;16.30;1.00;;;;;;2259662;61;903;-89
2023/04/22 00:21:05;217060.00;0.72;375.28;0.00;0.00;0.62;;;;;16.10;1.00;;;;;;2259746;61;905;-88
2023/04/22 00:23:32;197696.00;0.66;341.96;0.00;0.00;0.62;;;;;16.00;1.00;;;;;;2259604;61;2013;-87
2023/04/22 00:25:59;371899.00;1.24;641.50;81606.00;0.27;141.81;;;;;16.00;1.00;;;;;;2259718;61;942;-87
2023/04/22 00:28:26;203717.00;0.68;352.32;0.00;0.00;0.62;;;;;15.80;1.00;;;;;;2259600;61;936;-88
2023/04/22 00:30:53;363578.00;1.21;627.20;0.00;0.00;0.62;;;;;15.90;1.00;;;;;;2259602;61;1696;-88
2023/04/22 00:33:20;416968.00;1.39;718.98;0.00;0.00;0.62;;;;;15.90;1.00;;;;;;2259572;61;1251;-88
2023/04/22 00:35:49;215878.00;0.72;373.25;0.00;0.00;0.62;;;;;16.00;1.00;;;;;;2259757;61;936;-88
2023/04/22 00:38:16;117812.00;0.39;204.31;0.00;0.00;0.62;;;;;15.90;1.00;;;;;;2260370;61;1703;-89
2023/04/22 00:40:43;239183.00;0.80;413.35;27916.00;0.09;48.98;;;;;15.90;1.00;;;;;;2260377;61;1466;-87
2023/04/22 00:43:10;352030.00;1.17;607.35;14025.00;0.05;24.92;;;;;16.00;1.00;;;;;;2260356;61;1911;-88
2023/04/22 00:45:37;288407.00;0.96;497.99;0.00;0.00;0.62;;;;;15.90;1.00;;;;;;2260153;61;921;-88
2023/04/22 00:48:05;210498.00;0.70;363.99;0.00;0.00;0.62;;;;;15.90;1.00;;;;;;2260145;61;1000;-89
2023/04/22 00:50:32;63098.00;0.21;109.83;0.00;0.00;0.62;;;;;15.80;1.00;;;;;;2260398;61;1747;-88
2023/04/22 00:53:00;197213.00;0.66;341.13;0.00;0.00;0.62;;;;;15.90;1.00;;;;;;2260446;61;1380;-86
2023/04/22 00:55:28;409526.00;1.37;706.18;17316.00;0.06;30.62;;;;;15.90;1.00;;;;;;2256686;61;2359;-87
2023/04/22 00:57:57;174084.00;0.58;301.30;0.00;0.00;0.62;;;;;15.90;1.00;;;;;;2260209;61;1164;-87
2023/04/22 01:00:26;411336.00;1.37;709.29;23437.00;0.08;41.22;;;;;15.80;1.00;;;;;;2260269;61;1130;-87
2023/04/22 01:02:53;222215.00;0.74;384.15;0.00;0.00;0.62;;;;;15.70;1.00;;;;;;2260310;61;1912;-86
2023/04/22 01:05:20;169332.00;0.56;293.12;0.00;0.00;0.62;;;;;15.60;1.00;;;;;;2260381;61;891;-86
2023/04/22 01:07:48;325143.00;1.08;561.14;0.00;0.00;0.62;;;;;15.70;1.00;;;;;;2260291;61;1690;-86
2023/04/22 01:10:16;115138.00;0.38;199.69;0.00;0.00;0.62;;;;;15.70;1.00;;;;;;2260174;61;1139;-89
2023/04/22 01:12:43;199573.00;0.67;345.19;0.00;0.00;0.62;;;;;15.60;1.00;;;;;;2260234;61;1648;-87
2023/04/22 01:15:11;141475.00;0.47;245.11;0.00;0.00;0.62;;;;;15.60;1.00;;;;;;2260262;61;966;-88
2023/04/22 01:17:38;292637.00;0.98;505.26;0.00;0.00;0.62;;;;;15.60;1.00;;;;;;2260302;61;1643;-88
2023/04/22 01:20:08;129950.00;0.43;225.24;0.00;0.00;0.62;;;;;15.50;1.00;;;;;;2260312;61;903;-88
2023/04/22 01:22:40;184912.00;0.62;319.95;23196.00;0.08;40.80;;;;;15.40;1.00;;;;;;2260328;61;1993;-88
2023/04/22 01:25:10;75235.00;0.25;130.81;0.00;0.00;0.62;;;;;15.30;1.00;;;;;;2260300;61;980;-88
2023/04/22 01:27:37;155671.00;0.52;269.58;0.00;0.00;0.62;;;;;15.20;1.00;;;;;;2260267;61;2372;-88
2023/04/22 01:40:18;155132.00;0.52;268.65;0.00;0.00;0.62;;;;;15.30;1.00;;;;;;2251909;61;923;-88
2023/04/22 01:42:45;196587.00;0.66;340.05;0.00;0.00;0.62;;;;;15.50;1.00;;;;;;2251654;61;2001;-88
2023/04/22 01:45:13;149095.00;0.50;258.25;0.00;0.00;0.62;;;;;15.40;1.00;;;;;;2251747;61;1015;-87
2023/04/22 01:47:40;87135.00;0.29;151.36;0.00;0.00;0.62;;;;;15.40;1.00;;;;;;2251427;61;1190;-88
2023/04/22 01:50:08;71388.00;0.24;124.16;0.00;0.00;0.62;;;;;15.40;1.00;;;;;;2251704;61;1651;-86
2023/04/22 01:52:35;113873.00;0.38;197.51;0.00;0.00;0.62;;;;;15.50;1.00;;;;;;2251695;61;1392;-86
2023/04/22 01:55:02;255542.00;0.85;441.48;27474.00;0.09;48.21;;;;;15.50;1.00;;;;;;2251701;61;1576;-86
2023/04/22 01:57:31;227732.00;0.76;393.65;0.00;0.00;0.62;;;;;15.60;1.00;;;;;;2256326;61;1673;-88
2023/04/22 01:59:58;226570.00;0.76;391.65;0.00;0.00;0.62;;;;;15.70;1.00;;;;;;2260120;61;1187;-88
2023/04/22 02:02:25;470699.00;1.57;811.39;59739.00;0.20;104.03;;;;;15.60;1.00;;;;;;2259997;61;2030;-88
2023/04/22 02:04:52;199337.00;0.66;344.78;0.00;0.00;0.62;;;;;15.60;1.00;;;;;;2260177;61;1135;-88
2023/04/22 02:07:19;222053.00;0.74;383.88;0.00;0.00;0.62;;;;;15.50;1.00;;;;;;2260053;61;994;-87
2023/04/22 02:09:46;187381.00;0.62;324.20;0.00;0.00;0.62;;;;;15.50;1.00;;;;;;2259927;61;928;-87
2023/04/22 02:12:12;272059.00;0.91;469.88;34382.00;0.11;60.17;;;;;15.40;1.00;;;;;;2260096;61;1290;-86
2023/04/22 02:14:41;198353.00;0.66;343.09;24648.00;0.08;43.32;;;;;15.40;1.00;;;;;;2260111;61;1641;-87
2023/04/22 02:17:08;153240.00;0.51;265.39;0.00;0.00;0.62;;;;;15.40;1.00;;;;;;2260156;61;1028;-86
2023/04/22 02:19:34;88393.00;0.29;153.53;0.00;0.00;0.62;;;;;15.20;1.00;;;;;;2260162;61;950;-86
2023/04/22 02:22:02;246875.00;0.82;426.58;0.00;0.00;0.62;;;;;15.20;1.00;;;;;;2262308;40;3607;-89
2023/04/22 02:24:28;190228.00;0.63;329.10;0.00;0.00;0.62;;;;;15.20;1.00;;;;;;2259992;61;1711;-86
2023/04/22 02:26:56;257648.00;0.86;445.10;0.00;0.00;0.62;;;;;15.60;1.00;;;;;;2259864;61;1604;-90
2023/04/22 02:29:24;212734.00;0.71;367.84;0.00;0.00;0.62;;;;;15.90;1.00;;;;;;2259999;61;1607;-89
2023/04/22 02:31:52;373517.00;1.25;644.28;0.00;0.00;0.62;;;;;15.70;1.00;;;;;;2260034;61;1606;-87
2023/04/22 02:34:19;173149.00;0.58;299.69;0.00;0.00;0.62;;;;;15.60;1.00;;;;;;2264602;40;3785;-88
2023/04/22 02:36:46;196412.00;0.65;339.75;0.00;0.00;0.62;;;;;15.60;1.00;;;;;;2259942;61;1585;-88
2023/04/22 02:39:13;334803.00;1.12;577.74;39665.00;0.13;69.31;;;;;15.50;1.00;;;;;;2259957;61;1756;-91
2023/04/22 02:41:40;366100.00;1.22;631.53;0.00;0.00;0.62;;;;;15.60;1.00;;;;;;2260031;61;932;-88
2023/04/22 02:44:07;145326.00;0.48;251.75;0.00;0.00;0.62;;;;;15.60;1.00;;;;;;2260007;61;1924;-88
2023/04/22 02:46:35;564848.00;1.88;973.56;29474.00;0.10;51.67;;;;;15.70;1.00;;;;;;2259813;61;990;-89
2023/04/22 02:49:03;222301.00;0.74;384.30;0.00;0.00;0.62;;;;;15.50;1.00;;;;;;2260007;61;1179;-89
2023/04/22 02:51:31;233735.00;0.78;403.97;0.00;0.00;0.62;;;;;15.40;1.00;;;;;;2259958;61;932;-88
2023/04/22 02:53:59;301248.00;1.00;520.07;0.00;0.00;0.62;;;;;15.20;1.00;;;;;;2259733;61;1326;-91
2023/04/22 02:56:26;300525.00;1.00;518.82;0.00;0.00;0.62;;;;;15.30;1.00;;;;;;2260049;61;1078;-90
2023/04/22 02:58:53;318648.00;1.06;549.97;21710.00;0.07;38.23;;;;;15.40;1.00;;;;;;2259917;61;935;-92
2023/04/22 03:01:20;325933.00;1.09;562.50;0.00;0.00;0.62;;;;;15.20;1.00;;;;;;2260047;61;1614;-90
2023/04/22 03:03:46;301047.00;1.00;519.72;0.00;0.00;0.62;;;;;15.00;1.00;;;;;;2260117;61;1912;-90
2023/04/22 03:06:15;148477.00;0.49;257.18;0.00;0.00;0.62;;;;;15.00;1.00;;;;;;2260303;61;884;-89
2023/04/22 03:08:42;287407.00;0.96;496.27;59773.00;0.20;104.08;;;;;15.00;1.00;;;;;;2260359;61;1084;-89
2023/04/22 03:11:09;110117.00;0.37;191.03;0.00;0.00;0.62;;;;;15.40;1.00;;;;;;2260325;61;1010;-89
2023/04/22 03:13:36;373954.00;1.25;645.03;61639.00;0.21;107.31;;;;;15.30;1.00;;;;;;2260163;61;1450;-89
2023/04/22 03:18:33;662249.00;2.21;1141.83;99862.00;0.33;173.33;;;;;14.90;1.00;;;;;;2261930;61;1412;-88
2023/04/22 03:21:00;250211.00;0.83;432.31;0.00;0.00;0.62;;;;;14.90;1.00;;;;;;2260137;61;1132;-89
2023/04/22 03:23:29;271102.00;0.90;468.24;0.00;0.00;0.62;;;;;14.80;1.00;;;;;;2257084;61;1991;-89
2023/04/22 03:25:56;231243.00;0.77;399.69;0.00;0.00;0.62;;;;;14.60;1.00;;;;;;2256276;61;1051;-88
2023/04/22 03:28:22;226362.00;0.75;391.29;0.00;0.00;0.62;;;;;14.60;1.00;;;;;;2256176;61;1464;-88
2023/04/22 03:30:49;477457.00;1.59;823.02;35715.00;0.12;62.47;;;;;14.50;1.00;;;;;;2256229;61;1712;-88
2023/04/22 03:33:16;218881.00;0.73;378.42;0.00;0.00;0.62;;;;;14.50;1.00;;;;;;2260081;40;3699;-88
2023/04/22 03:35:43;177132.00;0.59;306.55;0.00;0.00;0.62;;;;;14.40;1.00;;;;;;2260210;61;1020;-89
2023/04/22 03:38:10;323017.00;1.08;557.48;0.00;0.00;0.62;;;;;14.40;1.00;;;;;;2260134;61;1694;-88
2023/04/22 03:40:39;375039.00;1.25;646.90;47750.00;0.16;83.29;;;;;14.30;1.00;;;;;;2260283;61;1452;-88
2023/04/22 03:43:06;179075.00;0.60;309.90;12776.00;0.04;22.76;;;;;14.40;1.00;;;;;;2260150;61;2010;-88
2023/04/22 03:45:33;154537.00;0.52;267.63;0.00;0.00;0.62;;;;;14.60;1.00;;;;;;2260251;61;1036;-89
2023/04/22 03:48:00;429197.00;1.43;740.00;100494.00;0.33;174.42;;;;;14.40;1.00;;;;;;2260177;61;1447;-89
2023/04/22 03:50:27;218836.00;0.73;378.34;0.00;0.00;0.62;;;;;14.40;1.00;;;;;;2260168;61;1102;-88
2023/04/22 03:52:54;294390.00;0.98;508.28;0.00;0.00;0.62;;;;;14.40;1.00;;;;;;2260138;61;1712;-89
2023/04/22 03:55:21;225009.00;0.75;388.96;0.00;0.00;0.62;;;;;14.40;1.00;;;;;;2260127;61;973;-88
2023/04/22 03:57:50;326714.00;1.09;563.84;0.00;0.00;0.62;;;;;14.60;1.00;;;;;;2260122;61;1741;-88
2023/04/22 04:00:17;500681.00;1.67;863.00;85415.00;0.28;148.39;;;;;14.40;1.00;;;;;;2260136;61;1445;-88
2023/04/22 04:02:44;143195.00;0.48;248.08;0.00;0.00;0.62;;;;;14.40;1.00;;;;;;2260113;61;1919;-89
2023/04/22 04:05:11;286299.00;0.95;494.37;0.00;0.00;0.62;;;;;14.20;1.00;;;;;;2260086;61;1760;-90
2023/04/22 04:07:38;302050.00;1.01;521.44;0.00;0.00;0.62;;;;;14.10;1.00;;;;;;2260179;61;989;-90
2023/04/22 04:10:07;223756.00;0.75;386.81;0.00;0.00;0.62;;;;;14.10;1.00;;;;;;2260059;61;1545;-88
2023/04/22 04:12:34;328239.00;1.09;566.46;0.00;0.00;0.62;;;;;14.10;1.00;;;;;;2260593;61;1278;-90
2023/04/22 04:15:02;383251.00;1.28;661.01;0.00;0.00;0.62;;;;;14.00;1.00;;;;;;2260893;61;955;-90
2023/04/22 04:17:30;392198.00;1.31;676.39;72499.00;0.24;126.08;;;;;13.90;1.00;;;;;;2260771;61;1484;-88
2023/04/22 04:19:57;276754.00;0.92;477.96;0.00;0.00;0.62;;;;;13.80;1.00;;;;;;2260819;61;1131;-88
2023/04/22 04:22:24;123935.00;0.41;214.87;0.00;0.00;0.62;;;;;13.80;1.00;;;;;;2260822;61;1305;-87
2023/04/22 04:24:54;372230.00;1.24;642.07;0.00;0.00;0.62;;;;;14.00;1.00;;;;;;2260737;61;1926;-89
2023/04/22 04:27:22;219119.00;0.73;378.83;0.00;0.00;0.62;;;;;14.20;1.00;;;;;;2260683;61;1491;-88
2023/04/22 04:29:51;292958.00;0.98;505.81;0.00;0.00;0.62;;;;;14.30;1.00;;;;;;2260718;61;1628;-88
2023/04/22 04:32:20;369919.00;1.23;638.10;0.00;0.00;0.62;;;;;14.50;1.00;;;;;;2267885;56;3910;-89
2023/04/22 04:34:48;114042.00;0.38;197.80;0.00;0.00;0.62;;;;;14.70;1.00;;;;;;2260697;61;1554;-90
2023/04/22 04:39:43;870482.00;2.90;1504.33;29319.00;0.10;51.40;;;;;14.50;1.00;;;;;;2270609;41;3477;-87
2023/04/22 04:42:11;258036.00;0.86;445.77;0.00;0.00;0.62;;;;;14.50;1.00;;;;;;2260696;61;1272;-88
2023/04/22 04:44:37;241286.00;0.80;416.96;0.00;0.00;0.62;;;;;14.30;1.00;;;;;;2260720;61;1928;-87
2023/04/22 04:49:38;726856.00;2.42;1253.84;0.00;0.00;0.62;;;;;14.20;1.00;;;;;;2258296;61;1592;-89
2023/04/22 04:52:06;171612.00;0.57;297.04;0.00;0.00;0.62;;;;;14.10;1.00;;;;;;2256740;61;1735;-87
2023/04/22 05:02:08;821346.00;2.74;1418.38;0.00;0.00;0.62;;;;;13.90;1.00;;;;;;2261634;61;1433;-91
2023/04/22 05:04:36;286456.00;0.95;494.64;0.00;0.00;0.62;;;;;14.00;1.00;;;;;;2256477;61;2007;-90
2023/04/22 05:07:04;552999.00;1.84;953.13;14120.00;0.05;25.09;;;;;14.10;1.00;;;;;;2256565;61;1603;-89
2023/04/22 05:09:35;236628.00;0.79;408.95;0.00;0.00;0.62;;;;;14.40;1.00;;;;;;2256604;61;1645;-90
2023/04/22 05:12:02;451353.00;1.50;778.11;0.00;0.00;0.62;;;;;14.50;1.00;;;;;;2256559;61;2136;-88
2023/04/22 05:14:30;197834.00;0.66;342.20;0.00;0.00;0.62;;;;;14.50;1.00;;;;;;2256659;61;1006;-89
2023/04/22 05:16:57;315582.00;1.05;544.70;0.00;0.00;0.62;;;;;14.60;1.00;;;;;;2256609;61;941;-88
2023/04/22 05:19:24;384486.00;1.28;663.14;0.00;0.00;0.62;;;;;14.60;1.00;;;;;;2256556;61;1087;-89
2023/04/22 05:24:21;484288.00;1.61;834.78;0.00;0.00;0.62;;;;;14.70;1.00;;;;;;2262287;61;1969;-88
2023/04/22 05:29:21;725841.00;2.42;1252.08;0.00;0.00;0.62;;;;;14.90;1.00;;;;;;2261960;61;1421;-88
2023/04/22 05:31:51;241730.00;0.81;417.73;0.00;0.00;0.62;;;;;14.80;1.00;;;;;;2260364;61;1356;-89
2023/04/22 05:34:18;190497.00;0.63;329.56;0.00;0.00;0.62;;;;;14.80;1.00;;;;;;2291030;56;3778;-86
2023/04/22 05:36:49;310259.00;1.03;535.55;0.00;0.00;0.62;;;;;15.00;1.00;;;;;;2260383;61;1626;-88
2023/04/22 05:39:16;249928.00;0.83;431.83;0.00;0.00;0.62;;;;;14.90;1.00;;;;;;2263990;55;3742;-87
2023/04/22 05:46:58;828953.00;2.76;1431.67;0.00;0.00;0.62;;;;;14.70;1.00;;;;;;2262025;61;1414;-90
2023/04/22 05:49:25;349752.00;1.17;603.43;19825.00;0.07;34.97;;;;;15.00;1.00;;;;;;2260479;61;1524;-89
2023/04/22 05:51:54;273889.00;0.91;473.03;0.00;0.00;0.62;;;;;15.30;1.00;;;;;;2260102;61;2049;-88
2023/04/22 05:54:21;251724.00;0.84;434.92;0.00;0.00;0.62;;;;;15.70;1.00;;;;;;2256457;61;1671;-89
2023/04/22 05:56:51;237230.00;0.79;409.99;0.00;0.00;0.62;;;;;15.70;1.00;;;;;;2256518;61;1489;-89
2023/04/22 05:59:18;233763.00;0.78;404.02;0.00;0.00;0.62;;;;;15.90;1.00;;;;;;2256606;61;1468;-88
2023/04/22 06:01:45;247180.00;0.82;427.10;0.00;0.00;0.62;;;;;16.20;1.00;;;;;;2256341;61;1288;-88
2023/04/22 06:04:12;234222.00;0.78;404.81;0.00;0.00;0.62;;;;;16.50;1.00;;;;;;2262355;40;3586;-86
2023/04/22 06:06:40;201123.00;0.67;347.86;0.00;0.00;0.62;;;;;16.60;1.00;;;;;;2260428;61;1723;-87
2023/04/22 06:09:07;240453.00;0.80;415.53;0.00;0.00;0.62;;;;;16.70;1.00;;;;;;2260173;61;1653;-89
2023/04/22 06:11:39;217807.00;0.73;376.57;0.00;0.00;0.62;;;;;16.70;1.00;;;;;;2256793;61;1583;-88
2023/04/22 06:14:07;200815.00;0.67;347.33;0.00;0.00;0.62;;;;;16.90;1.00;;;;;;2260334;61;1666;-88
2023/04/22 06:16:34;241796.00;0.81;417.84;0.00;0.00;0.62;;;;;16.80;1.00;;;;;;2260397;61;1713;-86
2023/04/22 06:21:45;325500.00;1.09;561.75;38790.00;0.13;67.79;;;;;18.00;1.00;;;;;;2260459;61;1563;-88
2023/04/22 06:24:12;125977.00;0.42;218.39;0.00;0.00;0.62;;;;;18.40;1.00;;;;;;2260303;61;1992;-88
2023/04/22 06:26:39;114717.00;0.38;198.97;0.00;0.00;0.62;;;;;18.70;1.00;;;;;;2260366;61;1602;-90
2023/04/22 06:29:10;137209.00;0.46;237.76;0.00;0.00;0.62;;;;;18.50;1.00;;;;;;2260423;61;1017;-88
2023/04/22 06:31:37;135567.00;0.45;234.93;0.00;0.00;0.62;;;;;18.40;1.00;;;;;;2260387;61;1598;-87
2023/04/22 06:36:47;593044.00;1.98;1022.21;193477.00;0.64;334.69;;;;;19.00;1.00;;;;;;2260326;61;1761;-88
2023/04/22 06:39:14;359739.00;1.20;620.60;97244.00;0.32;168.81;;;;;19.40;1.00;;;;;;2260355;61;1712;-87
2023/04/22 06:41:43;421896.00;1.41;727.45;89170.00;0.30;154.87;;;;;19.30;1.00;;;;;;2260395;61;1448;-88
2023/04/22 06:44:11;300716.00;1.00;519.15;86267.00;0.29;149.86;;;;;19.20;1.00;;;;;;2260193;61;2018;-86
2023/04/22 06:46:40;229550.00;0.77;396.77;93456.00;0.31;162.27;;;;;19.00;1.00;;;;;;2260327;61;992;-87
2023/04/22 06:49:07;328769.00;1.10;567.37;90050.00;0.30;156.39;;;;;19.20;1.00;;;;;;2260276;61;1553;-88
2023/04/22 06:51:34;336916.00;1.12;581.37;95675.00;0.32;166.11;;;;;19.40;1.00;;;;;;2260360;61;988;-87
2023/04/22 06:54:04;254083.00;0.85;438.97;0.00;0.00;0.62;;;;;19.50;1.00;;;;;;2260145;61;1739;-89
2023/04/22 06:56:31;555874.00;1.85;958.09;94102.00;0.31;163.39;;;;;19.10;1.00;;;;;;2289423;41;3557;-89
2023/04/22 06:59:02;409854.00;1.37;706.75;86924.00;0.29;151.00;;;;;19.30;1.00;;;;;;2259820;61;978;-88
2023/04/22 07:01:31;274926.00;0.92;474.81;85081.00;0.28;147.81;;;;;19.50;1.00;;;;;;2260085;61;1572;-87
2023/04/22 07:03:58;298016.00;0.99;514.51;83305.00;0.28;144.75;;;;;19.60;1.00;;;;;;2260161;61;1919;-88
2023/04/22 07:08:54;453331.00;1.51;781.51;0.00;0.00;0.62;;;;;19.70;1.00;;;;;;2262902;61;1326;-86
2023/04/22 07:11:21;172997.00;0.58;299.43;0.00;0.00;0.62;;;;;19.80;1.00;;;;;;2260932;61;898;-93
2023/04/22 07:13:48;144166.00;0.48;249.75;0.00;0.00;0.62;;;;;19.90;1.00;;;;;;2257273;61;1746;-88
2023/04/22 07:16:15;344138.00;1.15;593.79;34284.00;0.11;60.00;;;;;20.00;1.00;;;;;;2256847;61;1557;-90
2023/04/22 07:18:44;270697.00;0.90;467.54;0.00;0.00;0.62;;;;;20.20;1.00;;;;;;2256904;61;812;-89
2023/04/22 07:21:11;234163.00;0.78;404.71;0.00;0.00;0.62;;;;;20.10;1.00;;;;;;2268695;40;3644;-89
2023/04/22 07:23:38;177092.00;0.59;306.48;0.00;0.00;0.62;;;;;20.00;1.00;;;;;;2260777;61;2014;-89
2023/04/22 07:26:05;191519.00;0.64;331.32;0.00;0.00;0.62;;;;;20.20;1.00;;;;;;2260850;61;1722;-89
2023/04/22 07:28:34;58645.00;0.20;102.13;0.00;0.00;0.62;;;;;20.30;1.00;;;;;;2260842;61;1079;-89
2023/04/22 07:31:01;87918.00;0.29;152.71;0.00;0.00;0.62;;;;;20.30;1.00;;;;;;2260764;61;843;-89
2023/04/22 07:33:28;113497.00;0.38;196.86;0.00;0.00;0.62;;;;;20.40;1.00;;;;;;2260772;61;1587;-89
2023/04/22 07:36:00;216977.00;0.72;375.14;0.00;0.00;0.62;;;;;20.80;1.00;;;;;;2260733;61;1602;-89
2023/04/22 07:40:55;348977.00;1.16;602.10;0.00;0.00;0.62;;;;;20.70;1.00;;;;;;2261728;61;1381;-86
2023/04/22 07:43:22;195342.00;0.65;337.91;0.00;0.00;0.62;;;;;20.40;1.00;;;;;;2257210;61;1307;-86
2023/04/22 07:45:50;148684.00;0.50;257.54;0.00;0.00;0.62;;;;;20.30;1.00;;;;;;2256181;61;1983;-89
2023/04/22 07:48:24;181259.00;0.60;313.66;0.00;0.00;0.62;;;;;20.40;1.00;;;;;;2256620;61;1582;-89
2023/04/22 07:50:52;351581.00;1.17;606.58;86277.00;0.29;149.88;;;;;20.40;1.00;;;;;;2256605;61;1597;-87
2023/04/22 07:56:03;224750.00;0.75;388.52;96136.00;0.32;166.90;;;;;20.20;1.00;;;;;;2256804;61;1588;-88
2023/04/22 07:58:34;335933.00;1.12;579.68;80267.00;0.27;139.50;;;;;20.20;1.00;;;;;;2256820;61;1028;-88
2023/04/22 08:13:34;609623.00;2.03;1050.84;92035.00;0.31;159.82;;;;;22.50;1.00;;;;;;2259607;61;1497;-90
2023/04/22 08:18:30;1120517.00;3.74;1947.15;112155.00;0.37;194.55;;;;;23.80;1.00;;;;;;2262428;61;1554;-89
2023/04/22 08:28:24;1105768.00;3.69;1920.74;115994.00;0.39;201.17;;;;;24.50;1.00;;;;;;2262608;61;1386;-90
2023/04/22 08:36:02;1131117.00;3.77;1966.16;38020.00;0.13;66.46;;;;;24.90;1.00;;;;;;2262314;61;1338;-87
2023/04/22 08:38:32;623795.00;2.08;1075.32;1112.00;0.00;2.55;;;;;25.30;1.00;;;;;;2260797;61;977;-88
2023/04/22 08:41:00;945701.00;3.15;1636.53;25113.00;0.08;44.12;;;;;24.90;1.00;;;;;;2280596;56;3743;-88
2023/04/22 08:43:28;1353313.00;4.51;2370.01;332762.00;1.11;574.23;;;;;25.00;1.00;;;;;;2260659;61;1655;-87
2023/04/22 08:45:58;612675.00;2.04;1056.11;42067.00;0.14;73.46;;;;;25.70;1.00;;;;;;2260545;61;2053;-87
2023/04/22 08:48:28;634207.00;2.11;1093.32;19517.00;0.07;34.43;;;;;25.60;1.00;;;;;;2260660;61;1728;-87
2023/04/22 08:51:01;382252.00;1.27;659.30;0.00;0.00;0.62;;;;;25.10;1.00;;;;;;2260720;61;951;-88
2023/04/22 08:53:28;81549.00;0.27;141.71;0.00;0.00;0.62;;;;;25.90;1.00;;;;;;2260683;61;1448;-89
2023/04/22 08:55:58;55478.00;0.18;96.66;0.00;0.00;0.62;;;;;26.10;1.00;;;;;;2260562;61;1047;-88
2023/04/22 08:58:25;101516.00;0.34;176.19;0.00;0.00;0.62;;;;;25.90;1.00;;;;;;2260446;61;1595;-88
2023/04/22 09:00:56;130591.00;0.44;226.35;12467.00;0.04;22.22;;;;;25.30;1.00;;;;;;2260520;61;982;-88
2023/04/22 09:03:23;112068.00;0.37;194.40;0.00;0.00;0.62;;;;;25.40;1.00;;;;;;2260547;61;1307;-87
2023/04/22 09:05:51;97157.00;0.32;168.66;0.00;0.00;0.62;;;;;25.30;1.00;;;;;;2260490;61;2013;-90
2023/04/22 09:10:56;176902.00;0.59;306.15;0.00;0.00;0.62;;;;;24.70;1.00;;;;;;2287882;56;1881;-89
2023/04/22 09:13:27;226793.00;0.76;392.03;0.00;0.00;0.62;;;;;24.90;1.00;;;;;;2317072;41;3615;-90
2023/04/22 09:15:54;158994.00;0.53;275.31;12467.00;0.04;22.22;;;;;24.50;1.00;;;;;;2260433;61;1598;-90
2023/04/22 09:18:22;48312.00;0.16;84.27;0.00;0.00;0.62;;;;;24.30;1.00;;;;;;2260575;61;925;-89
2023/04/22 09:38:15;462814.00;1.54;797.83;0.00;0.00;0.62;;;;;24.40;1.00;;;;;;2262107;61;1408;-89
2023/04/22 10:03:09;439071.00;1.46;756.99;0.00;0.00;0.62;;;;;25.40;1.00;;;;;;2262166;61;1428;-89
2023/04/22 10:10:34;295050.00;0.98;509.41;0.00;0.00;0.62;;;;;25.60;1.00;;;;;;2288131;40;3706;-86
2023/04/22 10:15:35;657509.00;2.19;1133.63;122647.00;0.41;212.65;;;;;25.30;1.00;;;;;;2279602;40;3647;31
2023/04/22 10:48:04;447970.00;1.49;772.29;0.00;0.00;0.62;;;;;25.70;1.00;;;;;;2261998;61;1247;-89
2023/04/22 11:10:42;871799.00;2.91;1506.64;0.00;0.00;0.62;;;;;26.00;1.00;;;;;;2269528;56;3708;-89
2023/04/22 11:23:07;1121841.00;3.74;1949.53;28909.00;0.10;50.69;;;;;26.80;1.00;;;;;;1876811;56;3840;-89
2023/04/22 11:35:37;507931.00;1.69;875.48;0.00;0.00;0.62;;;;;25.90;1.00;;;;;;2014908;40;3643;-90
2023/04/22 11:38:09;142413.00;0.47;246.73;0.00;0.00;0.62;;;;;26.30;1.00;;;;;;2259902;61;1653;-86
2023/04/22 11:40:38;94148.00;0.31;163.47;0.00;0.00;0.62;;;;;26.60;1.00;;;;;;2260129;61;2137;-88
2023/04/22 11:43:09;410392.00;1.37;707.67;145143.00;0.48;251.44;;;;;26.30;1.00;;;;;;2260075;61;1286;-88
2023/04/22 11:45:38;112985.00;0.38;195.98;0.00;0.00;0.62;;;;;26.60;1.00;;;;;;2260014;61;2006;-88
2023/04/22 11:53:13;517390.00;1.72;891.77;36237.00;0.12;63.38;;;;;26.90;1.00;;;;;;2259522;61;1297;-89
2023/04/22 11:58:10;342897.00;1.14;591.65;0.00;0.00;0.62;;;;;27.10;1.00;;;;;;2261882;61;1401;-89
2023/04/22 12:00:40;270752.00;0.90;467.64;123875.00;0.41;214.77;;;;;26.70;1.00;;;;;;2260186;61;1596;-90
2023/04/22 12:03:08;85916.00;0.29;149.26;0.00;0.00;0.62;;;;;26.60;1.00;;;;;;2257656;61;1304;-88
2023/04/22 12:05:38;193268.00;0.64;334.33;0.00;0.00;0.62;;;;;26.20;1.00;;;;;;2256159;61;2001;-88
2023/04/22 12:08:10;209744.00;0.70;362.69;12719.00;0.04;22.66;;;;;26.20;1.00;;;;;;2256223;61;1034;-89
2023/04/22 12:10:42;233617.00;0.78;403.77;26851.00;0.09;47.13;;;;;25.90;1.00;;;;;;2256220;61;1598;-89
2023/04/22 12:13:09;73748.00;0.25;128.24;0.00;0.00;0.62;;;;;25.80;1.00;;;;;;2256240;61;1286;-90
2023/04/22 12:15:43;117825.00;0.39;204.33;0.00;0.00;0.62;;;;;25.90;1.00;;;;;;2256245;61;967;-89
2023/04/22 12:18:11;69549.00;0.23;120.98;0.00;0.00;0.62;;;;;26.00;1.00;;;;;;2256009;61;1761;-89
2023/04/22 12:23:14;188873.00;0.63;326.77;0.00;0.00;0.62;;;;;26.30;1.00;;;;;;2259533;61;1354;-88
2023/04/22 12:28:11;464097.00;1.55;800.03;22080.00;0.07;38.87;;;;;26.60;1.00;;;;;;2262587;61;1326;-90
2023/04/22 12:35:40;318861.00;1.06;550.34;0.00;0.00;0.62;;;;;27.50;1.00;;;;;;2263395;61;1039;-89
2023/04/22 12:38:07;62945.00;0.21;109.57;0.00;0.00;0.62;;;;;27.20;1.00;;;;;;2260835;61;1471;-87
2023/04/22 12:40:36;180510.00;0.60;312.37;0.00;0.00;0.62;;;;;27.10;1.00;;;;;;2260708;61;1752;-89
2023/04/22 12:43:04;151658.00;0.51;262.66;0.00;0.00;0.62;;;;;26.80;1.00;;;;;;2258389;61;1662;-89
2023/04/22 12:45:32;279070.00;0.93;481.94;23271.00;0.08;40.93;;;;;27.10;1.00;;;;;;2256327;61;1922;-88
2023/04/22 12:47:59;315793.00;1.05;545.07;0.00;0.00;0.62;;;;;27.20;1.00;;;;;;2286819;56;3907;-88
2023/04/22 12:50:27;57334.00;0.19;99.87;0.00;0.00;0.62;;;;;27.10;1.00;;;;;;2269728;55;3769;-87
2023/04/22 13:00:31;215800.00;0.72;373.12;0.00;0.00;0.62;;;;;26.30;1.00;;;;;;2262163;61;1427;-88
2023/04/22 13:03:01;62637.00;0.21;109.04;0.00;0.00;0.62;;;;;26.40;1.00;;;;;;2258302;61;1739;-87
2023/04/22 13:11:18;610914.00;2.04;1053.07;0.00;0.00;0.62;;;;;27.40;1.00;;;;;;2328379;56;3640;-88
2023/04/22 13:53:44;530465.00;1.77;914.29;0.00;0.00;0.62;;;;;26.30;1.00;;;;;;2280325;40;3575;-91
2023/04/22 13:56:13;373806.00;1.25;644.78;0.00;0.00;0.62;;;;;26.20;1.00;;;;;;2304493;40;3613;-88
2023/04/22 14:01:08;470442.00;1.57;810.95;0.00;0.00;0.62;;;;;25.90;1.00;;;;;;2269742;61;1425;-88
2023/04/22 14:06:07;422683.00;1.41;728.80;0.00;0.00;0.62;;;;;26.00;1.00;;;;;;2293455;55;3673;-89
2023/04/22 14:08:34;161705.00;0.54;279.98;0.00;0.00;0.62;;;;;25.60;1.00;;;;;;2275874;61;2016;-88
2023/04/22 14:11:03;290241.00;0.97;501.14;0.00;0.00;0.62;;;;;25.30;1.00;;;;;;2275892;61;1740;-89
2023/04/22 14:13:31;214400.00;0.71;370.71;0.00;0.00;0.62;;;;;25.20;1.00;;;;;;2279018;60;1292;-88
2023/04/22 14:18:35;212444.00;0.71;367.34;0.00;0.00;0.62;;;;;25.80;1.00;;;;;;1195476;60;2086;-89
2023/04/22 14:26:15;670926.00;2.24;1156.86;0.00;0.00;0.62;;;;;25.90;1.00;;;;;;2271069;61;1739;-91
2023/04/22 14:28:46;475540.00;1.59;819.72;114782.00;0.38;199.08;;;;;25.90;1.00;;;;;;2295899;56;3735;-89
2023/04/22 14:31:16;438592.00;1.46;756.16;87898.00;0.29;152.68;;;;;25.70;1.00;;;;;;2278454;55;3795;-87
2023/04/22 14:33:45;532258.00;1.77;917.38;93609.00;0.31;162.54;;;;;25.60;1.00;;;;;;2275720;61;1668;-88